Adrian, Missouri
Current Conditions -  °F | °C
As of 5:15 AM on Thursday 18 Dec 2014 (Local Time) from KGLY Reporting Station
Light Rain Light Rain  
Wind Chill: 26°   Ceiling: 400
Heat Index: 32°   Visibility: 2.5mi
Dew Point: 32°   Wind: 7mph
Humidity: 100%   Direction: 90°E
Pressure: 30.2"   Gusts: NA
Location:  38.4°N, 94.35°W
Report Text: KGLY 181115Z AUTO 09006KT 2 1/2SM -RA BKN004 BKN021 00/00 A3020 RMK AO2
Loading
Personal Weather Stations






























Interactive Weather Map New forecast layout! Learn more

10-Day Weather Forecast

Advertisements
Track Severe Weather on mobile